Accueil
METAR-TAF:

METAR-TAF

Aéroports :

Johnson County Airport

Buffalo, Wyoming, États-Unis

latitude: 44-22-53N, longitude: 106-43-08W, altitude: 1514 m

Observation

Le bulletin a été fait il y a 1 heure et 18 minutes, à 12:53 UTC
Vent 7 kt de ouest/nord-ouest
Température 17°C
Humidité 52%
Pression 1018 hPa
Visibilité: 16.1 km
Ciel clair

METAR: KBYG 011253Z AUTO 30007KT 10SM CLR 17/07 A3005 RMK AO2 SLP111 T01720072

Heure: 08:11 (14:11 UTC)


TAF: absent

Observations et prévisions météorologiques de plus de 4000 aéroports (messages METAR et TAF).

Les stations disponibles sont représentées par des disques jaunes et rouges sur la carte.

Passer la souris dessus pour voir le nom de la station.

Cliquer dessus pour voir les observations et prévisions météorologiques.

Pour changer de carte: cliquez sur les boutons verts avec une croix noire pour zoomer, sur le bouton vert avec un tiret pour effectuer un zoom arrière, ou sur les flèches vertes pour les cartes adjacentes.


METAR-TAF: